RYR37VH EPKT-LIRF
Flight info
| Callsign | RYR37VH |
|---|---|
| Flight time | 1h 38m |
| Altitude | 36000 |
| Route | TUSI4M TUSIN DCT LEDVA DCT VAMET DCT RADLY DCT ARLON DCT BAXON DCT UNUMU DCT ETPOK T369 RITEB |
| Aircraft | B738/M-SDE2E3FGHIRWXY/LB1 |
Departure
| Time | 2026-05-01 07:53 |
|---|---|
| Airport | Katowice Wojciech Korfanty International Airport (EPKT) |
Arrival
| Time | 2026-05-01 09:31 |
|---|---|
| Airport | Rome–Fiumicino Leonardo da Vinci International Airport (LIRF) |
| Time | Latitude | Longitude | Altitude | Speed | Heading |
|---|---|---|---|---|---|
| 2026-05-01 07:31 | 50.47185 | 19.07149 | 997 ft | 0 kts | 180° |
| 2026-05-01 07:43 | 50.47187 | 19.07149 | 997 ft | 2 kts | 180° |
| 2026-05-01 07:43 | 50.47219 | 19.07137 | 1000 ft | 2 kts | 144° |
| 2026-05-01 07:44 | 50.47235 | 19.07094 | 997 ft | 2 kts | 95° |
| 2026-05-01 07:44 | 50.47235 | 19.07078 | 1000 ft | 0 kts | 90° |
| 2026-05-01 07:46 | 50.47235 | 19.07128 | 999 ft | 5 kts | 90° |
| 2026-05-01 07:47 | 50.47235 | 19.07201 | 997 ft | 8 kts | 90° |
| 2026-05-01 07:47 | 50.47235 | 19.07303 | 1000 ft | 11 kts | 90° |
| 2026-05-01 07:47 | 50.47234 | 19.07434 | 1002 ft | 13 kts | 90° |
| 2026-05-01 07:47 | 50.47234 | 19.07588 | 1001 ft | 15 kts | 90° |
| 2026-05-01 07:48 | 50.47233 | 19.07927 | 1001 ft | 15 kts | 90° |
| 2026-05-01 07:48 | 50.47233 | 19.08090 | 999 ft | 15 kts | 90° |
| 2026-05-01 07:48 | 50.47233 | 19.08245 | 1003 ft | 14 kts | 90° |
| 2026-05-01 07:49 | 50.47232 | 19.08394 | 1003 ft | 13 kts | 90° |
| 2026-05-01 07:49 | 50.47232 | 19.08673 | 1003 ft | 13 kts | 90° |
| 2026-05-01 07:49 | 50.47231 | 19.08811 | 1000 ft | 13 kts | 90° |
| 2026-05-01 07:50 | 50.47231 | 19.08966 | 1003 ft | 15 kts | 90° |
| 2026-05-01 07:50 | 50.47230 | 19.09331 | 1000 ft | 15 kts | 86° |
| 2026-05-01 07:50 | 50.47309 | 19.09388 | 999 ft | 14 kts | 360° |
| 2026-05-01 07:51 | 50.47404 | 19.09390 | 999 ft | 13 kts | 1° |
| 2026-05-01 07:51 | 50.47495 | 19.09392 | 998 ft | 13 kts | 0° |
| 2026-05-01 07:51 | 50.47580 | 19.09369 | 999 ft | 13 kts | 320° |
| 2026-05-01 07:52 | 50.47597 | 19.08885 | 999 ft | 70 kts | 270° |
| 2026-05-01 07:52 | 50.47600 | 19.07699 | 999 ft | 143 kts | 270° |
| 2026-05-01 07:52 | 50.47608 | 19.05928 | 1449 ft | 167 kts | 271° |
| 2026-05-01 07:53 | 50.47629 | 19.02241 | 3372 ft | 184 kts | 272° |
| 2026-05-01 07:53 | 50.47627 | 19.00033 | 3747 ft | 214 kts | 273° |
| 2026-05-01 07:53 | 50.47605 | 18.97592 | 4027 ft | 237 kts | 271° |
| 2026-05-01 07:53 | 50.47597 | 18.94864 | 4332 ft | 258 kts | 273° |
| 2026-05-01 07:54 | 50.47582 | 18.89087 | 5973 ft | 266 kts | 272° |
| 2026-05-01 07:55 | 50.47457 | 18.80139 | 8214 ft | 283 kts | 273° |
| 2026-05-01 07:55 | 50.47368 | 18.73824 | 9697 ft | 294 kts | 273° |
| 2026-05-01 07:56 | 50.47231 | 18.63678 | 11010 ft | 339 kts | 273° |
| 2026-05-01 07:56 | 50.45657 | 18.56524 | 12200 ft | 367 kts | 229° |
| 2026-05-01 07:57 | 50.43612 | 18.54109 | 12896 ft | 372 kts | 207° |
| 2026-05-01 07:57 | 50.38875 | 18.50676 | 14219 ft | 383 kts | 204° |
| 2026-05-01 07:58 | 50.33961 | 18.47119 | 15466 ft | 391 kts | 204° |
| 2026-05-01 07:58 | 50.28853 | 18.44109 | 16650 ft | 395 kts | 182° |
| 2026-05-01 07:59 | 50.23507 | 18.45155 | 17916 ft | 391 kts | 162° |
| 2026-05-01 07:59 | 50.18131 | 18.46975 | 19060 ft | 399 kts | 162° |
| 2026-05-01 08:00 | 50.07036 | 18.50427 | 21147 ft | 413 kts | 162° |
| 2026-05-01 08:01 | 49.98492 | 18.53064 | 22651 ft | 424 kts | 162° |
| 2026-05-01 08:01 | 49.95580 | 18.53961 | 23159 ft | 427 kts | 162° |
| 2026-05-01 08:01 | 49.92646 | 18.54864 | 23642 ft | 430 kts | 162° |
| 2026-05-01 08:02 | 49.86614 | 18.55863 | 24433 ft | 452 kts | 185° |
| 2026-05-01 08:02 | 49.83583 | 18.54374 | 24835 ft | 462 kts | 205° |
| 2026-05-01 08:03 | 49.78720 | 18.47899 | 25666 ft | 468 kts | 227° |
| 2026-05-01 08:03 | 49.76503 | 18.44168 | 26021 ft | 471 kts | 228° |
| 2026-05-01 08:03 | 49.72076 | 18.36657 | 26750 ft | 477 kts | 228° |
| 2026-05-01 08:04 | 49.67536 | 18.29103 | 27471 ft | 481 kts | 227° |
| 2026-05-01 08:04 | 49.62919 | 18.21545 | 28185 ft | 485 kts | 227° |
| 2026-05-01 08:05 | 49.58245 | 18.13947 | 28851 ft | 490 kts | 227° |
| 2026-05-01 08:05 | 49.55916 | 18.10171 | 29160 ft | 492 kts | 227° |
| 2026-05-01 08:05 | 49.53551 | 18.06339 | 29475 ft | 494 kts | 227° |
| 2026-05-01 08:06 | 49.48787 | 17.98636 | 30072 ft | 499 kts | 227° |
| 2026-05-01 08:06 | 49.43966 | 17.90860 | 30613 ft | 503 kts | 226° |
| 2026-05-01 08:07 | 49.39107 | 17.83048 | 31075 ft | 507 kts | 226° |
| 2026-05-01 08:07 | 49.34235 | 17.75238 | 31585 ft | 509 kts | 226° |
| 2026-05-01 08:08 | 49.31791 | 17.71330 | 31932 ft | 507 kts | 226° |
| 2026-05-01 08:08 | 49.26885 | 17.63502 | 32484 ft | 508 kts | 226° |
| 2026-05-01 08:09 | 49.21981 | 17.55701 | 33066 ft | 508 kts | 226° |
| 2026-05-01 08:09 | 49.19552 | 17.51845 | 33364 ft | 508 kts | 226° |
| 2026-05-01 08:09 | 49.17095 | 17.47952 | 33641 ft | 507 kts | 226° |
| 2026-05-01 08:10 | 49.12213 | 17.40233 | 34191 ft | 507 kts | 226° |
| 2026-05-01 08:10 | 49.07307 | 17.32500 | 34721 ft | 505 kts | 226° |
| 2026-05-01 08:11 | 49.02439 | 17.24849 | 35236 ft | 502 kts | 226° |
| 2026-05-01 08:11 | 48.97585 | 17.17243 | 35767 ft | 499 kts | 226° |
| 2026-05-01 08:12 | 48.92757 | 17.09700 | 36306 ft | 494 kts | 226° |
| 2026-05-01 08:12 | 48.90353 | 17.05953 | 36402 ft | 496 kts | 226° |
| 2026-05-01 08:13 | 48.83135 | 16.94731 | 36389 ft | 494 kts | 226° |
| 2026-05-01 08:13 | 48.75944 | 16.83598 | 36395 ft | 489 kts | 226° |
| 2026-05-01 08:14 | 48.70726 | 16.77012 | 36391 ft | 486 kts | 209° |
| 2026-05-01 08:14 | 48.64789 | 16.72304 | 36410 ft | 485 kts | 205° |
| 2026-05-01 08:15 | 48.55745 | 16.65381 | 36417 ft | 487 kts | 205° |
| 2026-05-01 08:16 | 48.49690 | 16.60671 | 36423 ft | 489 kts | 206° |
| 2026-05-01 08:16 | 48.43660 | 16.55959 | 36425 ft | 492 kts | 206° |
| 2026-05-01 08:17 | 48.37551 | 16.51192 | 36419 ft | 494 kts | 206° |
| 2026-05-01 08:17 | 48.31460 | 16.46455 | 36430 ft | 496 kts | 206° |
| 2026-05-01 08:18 | 48.25291 | 16.41674 | 36430 ft | 498 kts | 206° |
| 2026-05-01 08:19 | 48.12942 | 16.32142 | 36430 ft | 499 kts | 206° |
| 2026-05-01 08:19 | 48.06798 | 16.27418 | 36428 ft | 499 kts | 206° |
| 2026-05-01 08:20 | 48.00618 | 16.22680 | 36412 ft | 498 kts | 205° |
| 2026-05-01 08:20 | 47.94482 | 16.17989 | 36413 ft | 497 kts | 205° |
| 2026-05-01 08:21 | 47.88321 | 16.13291 | 36416 ft | 496 kts | 205° |
| 2026-05-01 08:21 | 47.82209 | 16.08643 | 36409 ft | 495 kts | 205° |
| 2026-05-01 08:22 | 47.76067 | 16.03985 | 36410 ft | 494 kts | 205° |
| 2026-05-01 08:22 | 47.69933 | 15.99344 | 36401 ft | 494 kts | 205° |
| 2026-05-01 08:23 | 47.63829 | 15.94739 | 36406 ft | 494 kts | 205° |
| 2026-05-01 08:23 | 47.57683 | 15.90115 | 36391 ft | 495 kts | 205° |
| 2026-05-01 08:24 | 47.52569 | 15.86277 | 36390 ft | 495 kts | 205° |
| 2026-05-01 08:24 | 47.46411 | 15.81666 | 36393 ft | 496 kts | 205° |
| 2026-05-01 08:25 | 47.40299 | 15.77101 | 36402 ft | 497 kts | 205° |
| 2026-05-01 08:25 | 47.34090 | 15.72476 | 36384 ft | 498 kts | 205° |
| 2026-05-01 08:26 | 47.27880 | 15.67862 | 36388 ft | 500 kts | 205° |
| 2026-05-01 08:26 | 47.21686 | 15.63273 | 36395 ft | 500 kts | 205° |
| 2026-05-01 08:27 | 47.15437 | 15.58655 | 36396 ft | 502 kts | 205° |
| 2026-05-01 08:27 | 47.09219 | 15.54072 | 36400 ft | 502 kts | 205° |
| 2026-05-01 08:28 | 47.02984 | 15.49487 | 36402 ft | 502 kts | 205° |
| 2026-05-01 08:28 | 46.96728 | 15.44900 | 36401 ft | 501 kts | 205° |
| 2026-05-01 08:29 | 46.90516 | 15.40357 | 36400 ft | 501 kts | 205° |
| 2026-05-01 08:29 | 46.84278 | 15.35806 | 36398 ft | 499 kts | 205° |
| 2026-05-01 08:30 | 46.78080 | 15.31295 | 36400 ft | 499 kts | 205° |
| 2026-05-01 08:30 | 46.71914 | 15.26585 | 36394 ft | 498 kts | 207° |
| 2026-05-01 08:31 | 46.65837 | 15.21781 | 36393 ft | 498 kts | 207° |
| 2026-05-01 08:31 | 46.59746 | 15.17066 | 36400 ft | 497 kts | 206° |
| 2026-05-01 08:32 | 46.53616 | 15.12365 | 36394 ft | 497 kts | 206° |
| 2026-05-01 08:32 | 46.47517 | 15.07687 | 36395 ft | 497 kts | 206° |
| 2026-05-01 08:33 | 46.41393 | 15.02996 | 36401 ft | 497 kts | 206° |
| 2026-05-01 08:33 | 46.35421 | 14.98236 | 36397 ft | 497 kts | 208° |
| 2026-05-01 08:34 | 46.29390 | 14.93275 | 36403 ft | 498 kts | 208° |
| 2026-05-01 08:34 | 46.23351 | 14.88326 | 36411 ft | 498 kts | 208° |
| 2026-05-01 08:35 | 46.17346 | 14.83449 | 36401 ft | 498 kts | 208° |
| 2026-05-01 08:35 | 46.11284 | 14.78553 | 36401 ft | 498 kts | 208° |
| 2026-05-01 08:36 | 46.05221 | 14.73671 | 36405 ft | 499 kts | 208° |
| 2026-05-01 08:36 | 45.99185 | 14.68820 | 36400 ft | 499 kts | 208° |
| 2026-05-01 08:37 | 45.93142 | 14.63975 | 36398 ft | 499 kts | 208° |
| 2026-05-01 08:37 | 45.87040 | 14.59095 | 36388 ft | 499 kts | 208° |
| 2026-05-01 08:38 | 45.81015 | 14.54289 | 36392 ft | 498 kts | 208° |
| 2026-05-01 08:38 | 45.74932 | 14.49449 | 36392 ft | 498 kts | 208° |
| 2026-05-01 08:39 | 45.68895 | 14.44658 | 36391 ft | 498 kts | 208° |
| 2026-05-01 08:39 | 45.62814 | 14.39843 | 36371 ft | 498 kts | 208° |
| 2026-05-01 08:40 | 45.53733 | 14.32676 | 36355 ft | 498 kts | 208° |
| 2026-05-01 08:40 | 45.47661 | 14.27898 | 36363 ft | 497 kts | 208° |
| 2026-05-01 08:41 | 45.41635 | 14.23168 | 36371 ft | 497 kts | 208° |
| 2026-05-01 08:41 | 45.35546 | 14.18401 | 36372 ft | 498 kts | 208° |
| 2026-05-01 08:42 | 45.29454 | 14.13643 | 36365 ft | 498 kts | 208° |
| 2026-05-01 08:42 | 45.23405 | 14.08931 | 36369 ft | 499 kts | 208° |
| 2026-05-01 08:43 | 45.17308 | 14.04193 | 36377 ft | 499 kts | 208° |
| 2026-05-01 08:43 | 45.11226 | 13.99477 | 36362 ft | 500 kts | 208° |
| 2026-05-01 08:44 | 45.05105 | 13.94743 | 36366 ft | 500 kts | 208° |
| 2026-05-01 08:44 | 44.98996 | 13.90031 | 36371 ft | 499 kts | 208° |
| 2026-05-01 08:45 | 44.92937 | 13.85367 | 36394 ft | 499 kts | 208° |
| 2026-05-01 08:45 | 44.89878 | 13.83018 | 36623 ft | 497 kts | 208° |
| 2026-05-01 08:45 | 44.86843 | 13.80689 | 37039 ft | 491 kts | 208° |
| 2026-05-01 08:46 | 44.83856 | 13.78400 | 37376 ft | 487 kts | 209° |
| 2026-05-01 08:46 | 44.80903 | 13.76140 | 37341 ft | 490 kts | 209° |
| 2026-05-01 08:46 | 44.74925 | 13.71572 | 37353 ft | 487 kts | 209° |
| 2026-05-01 08:47 | 44.68980 | 13.67041 | 37353 ft | 483 kts | 209° |
| 2026-05-01 08:47 | 44.63078 | 13.62552 | 37349 ft | 480 kts | 209° |
| 2026-05-01 08:48 | 44.57243 | 13.58124 | 37352 ft | 478 kts | 209° |
| 2026-05-01 08:48 | 44.51383 | 13.53687 | 37362 ft | 477 kts | 209° |
| 2026-05-01 08:49 | 44.45556 | 13.49284 | 37362 ft | 478 kts | 209° |
| 2026-05-01 08:49 | 44.39675 | 13.44847 | 37363 ft | 481 kts | 209° |
| 2026-05-01 08:50 | 44.33774 | 13.40361 | 37362 ft | 484 kts | 210° |
| 2026-05-01 08:50 | 44.27871 | 13.35869 | 37361 ft | 486 kts | 210° |
| 2026-05-01 08:51 | 44.21906 | 13.31345 | 37358 ft | 489 kts | 210° |
| 2026-05-01 08:51 | 44.15923 | 13.26820 | 37366 ft | 491 kts | 210° |
| 2026-05-01 08:52 | 44.09918 | 13.22291 | 37364 ft | 493 kts | 210° |
| 2026-05-01 08:52 | 44.03873 | 13.17743 | 37362 ft | 493 kts | 210° |
| 2026-05-01 08:53 | 43.97822 | 13.13201 | 37356 ft | 493 kts | 210° |
| 2026-05-01 08:53 | 43.91793 | 13.08686 | 37356 ft | 491 kts | 210° |
| 2026-05-01 08:54 | 43.85881 | 13.04269 | 37346 ft | 481 kts | 210° |
| 2026-05-01 08:54 | 43.80001 | 12.99886 | 37345 ft | 478 kts | 211° |
| 2026-05-01 08:55 | 43.77058 | 12.97694 | 37032 ft | 480 kts | 210° |
| 2026-05-01 08:55 | 43.74131 | 12.95517 | 36720 ft | 474 kts | 210° |
| 2026-05-01 08:55 | 43.71235 | 12.93367 | 36319 ft | 471 kts | 210° |
| 2026-05-01 08:55 | 43.68358 | 12.91233 | 35922 ft | 467 kts | 210° |
| 2026-05-01 08:56 | 43.65535 | 12.89141 | 35548 ft | 465 kts | 210° |
| 2026-05-01 08:56 | 43.62687 | 12.87032 | 35152 ft | 462 kts | 210° |
| 2026-05-01 08:56 | 43.59851 | 12.84935 | 34760 ft | 460 kts | 210° |
| 2026-05-01 08:56 | 43.57032 | 12.82852 | 34352 ft | 458 kts | 210° |
| 2026-05-01 08:57 | 43.54228 | 12.80782 | 33897 ft | 456 kts | 209° |
| 2026-05-01 08:57 | 43.51459 | 12.78740 | 33495 ft | 454 kts | 209° |
| 2026-05-01 08:57 | 43.48708 | 12.76714 | 33089 ft | 451 kts | 209° |
| 2026-05-01 08:57 | 43.45945 | 12.74680 | 32704 ft | 448 kts | 209° |
| 2026-05-01 08:58 | 43.43194 | 12.72659 | 32310 ft | 446 kts | 209° |
| 2026-05-01 08:58 | 43.40492 | 12.70586 | 31914 ft | 443 kts | 212° |
| 2026-05-01 08:58 | 43.37851 | 12.68400 | 31493 ft | 441 kts | 213° |
| 2026-05-01 08:58 | 43.35279 | 12.66203 | 31140 ft | 438 kts | 213° |
| 2026-05-01 08:59 | 43.32700 | 12.63983 | 30768 ft | 436 kts | 213° |
| 2026-05-01 08:59 | 43.30129 | 12.61779 | 30388 ft | 434 kts | 213° |
| 2026-05-01 08:59 | 43.27564 | 12.59595 | 29969 ft | 431 kts | 213° |
| 2026-05-01 08:59 | 43.25017 | 12.57440 | 29551 ft | 428 kts | 213° |
| 2026-05-01 09:00 | 43.22520 | 12.55337 | 29175 ft | 423 kts | 213° |
| 2026-05-01 09:00 | 43.20015 | 12.53233 | 28798 ft | 420 kts | 213° |
| 2026-05-01 09:00 | 43.17526 | 12.51147 | 28417 ft | 416 kts | 213° |
| 2026-05-01 09:00 | 43.15087 | 12.49105 | 28039 ft | 413 kts | 213° |
| 2026-05-01 09:01 | 43.12644 | 12.47062 | 27688 ft | 410 kts | 213° |
| 2026-05-01 09:01 | 43.10216 | 12.45033 | 27315 ft | 407 kts | 214° |
| 2026-05-01 09:01 | 43.07802 | 12.43016 | 26947 ft | 404 kts | 214° |
| 2026-05-01 09:01 | 43.05408 | 12.41019 | 26583 ft | 402 kts | 214° |
| 2026-05-01 09:02 | 43.03027 | 12.39033 | 26231 ft | 399 kts | 214° |
| 2026-05-01 09:02 | 43.00662 | 12.37063 | 25870 ft | 397 kts | 214° |
| 2026-05-01 09:02 | 42.98334 | 12.35125 | 25518 ft | 395 kts | 214° |
| 2026-05-01 09:02 | 42.95990 | 12.33175 | 25164 ft | 393 kts | 214° |
| 2026-05-01 09:03 | 42.93656 | 12.31237 | 24807 ft | 391 kts | 214° |
| 2026-05-01 09:03 | 42.91337 | 12.29311 | 24458 ft | 389 kts | 214° |
| 2026-05-01 09:03 | 42.89024 | 12.27392 | 24091 ft | 388 kts | 214° |
| 2026-05-01 09:03 | 42.86715 | 12.25478 | 23707 ft | 387 kts | 214° |
| 2026-05-01 09:04 | 42.84416 | 12.23573 | 23295 ft | 386 kts | 214° |
| 2026-05-01 09:04 | 42.82146 | 12.21695 | 22911 ft | 383 kts | 214° |
| 2026-05-01 09:04 | 42.79871 | 12.19816 | 22548 ft | 381 kts | 214° |
| 2026-05-01 09:04 | 42.77545 | 12.18074 | 22199 ft | 380 kts | 205° |
| 2026-05-01 09:05 | 42.75039 | 12.16936 | 21881 ft | 378 kts | 194° |
| 2026-05-01 09:05 | 42.72469 | 12.16412 | 21515 ft | 377 kts | 183° |
| 2026-05-01 09:05 | 42.69886 | 12.16706 | 21181 ft | 371 kts | 161° |
| 2026-05-01 09:05 | 42.67557 | 12.18100 | 20955 ft | 362 kts | 146° |
| 2026-05-01 09:06 | 42.65389 | 12.19836 | 20671 ft | 361 kts | 145° |
| 2026-05-01 09:06 | 42.63237 | 12.21608 | 20391 ft | 360 kts | 145° |
| 2026-05-01 09:06 | 42.61110 | 12.23353 | 20119 ft | 359 kts | 145° |
| 2026-05-01 09:06 | 42.58954 | 12.25101 | 19847 ft | 359 kts | 145° |
| 2026-05-01 09:07 | 42.56804 | 12.26827 | 19569 ft | 358 kts | 146° |
| 2026-05-01 09:07 | 42.54653 | 12.28543 | 19303 ft | 358 kts | 146° |
| 2026-05-01 09:07 | 42.52529 | 12.30231 | 19032 ft | 357 kts | 146° |
| 2026-05-01 09:07 | 42.50384 | 12.31933 | 18769 ft | 356 kts | 146° |
| 2026-05-01 09:08 | 42.48237 | 12.33635 | 18500 ft | 356 kts | 146° |
| 2026-05-01 09:08 | 42.46088 | 12.35340 | 18197 ft | 356 kts | 146° |
| 2026-05-01 09:08 | 42.43987 | 12.37013 | 17913 ft | 355 kts | 146° |
| 2026-05-01 09:08 | 42.41857 | 12.38707 | 17631 ft | 354 kts | 146° |
| 2026-05-01 09:09 | 42.39739 | 12.40390 | 17364 ft | 352 kts | 146° |
| 2026-05-01 09:09 | 42.37602 | 12.42035 | 17088 ft | 353 kts | 152° |
| 2026-05-01 09:09 | 42.35208 | 12.42867 | 16826 ft | 354 kts | 176° |
| 2026-05-01 09:09 | 42.32767 | 12.42592 | 16586 ft | 350 kts | 190° |
| 2026-05-01 09:10 | 42.30403 | 12.42031 | 16310 ft | 347 kts | 191° |
| 2026-05-01 09:10 | 42.28043 | 12.41427 | 16050 ft | 344 kts | 191° |
| 2026-05-01 09:10 | 42.25697 | 12.40827 | 15785 ft | 341 kts | 191° |
| 2026-05-01 09:10 | 42.23371 | 12.40244 | 15540 ft | 338 kts | 191° |
| 2026-05-01 09:11 | 42.21057 | 12.39677 | 15281 ft | 336 kts | 191° |
| 2026-05-01 09:11 | 42.19530 | 12.39307 | 15105 ft | 335 kts | 191° |
| 2026-05-01 09:11 | 42.16497 | 12.38580 | 14775 ft | 332 kts | 191° |
| 2026-05-01 09:11 | 42.14224 | 12.38040 | 14530 ft | 331 kts | 190° |
| 2026-05-01 09:12 | 42.12690 | 12.37676 | 14365 ft | 330 kts | 190° |
| 2026-05-01 09:12 | 42.10454 | 12.37146 | 14113 ft | 329 kts | 190° |
| 2026-05-01 09:12 | 42.08200 | 12.36613 | 13846 ft | 328 kts | 190° |
| 2026-05-01 09:12 | 42.05219 | 12.35907 | 13492 ft | 326 kts | 190° |
| 2026-05-01 09:13 | 42.03708 | 12.35550 | 13314 ft | 325 kts | 190° |
| 2026-05-01 09:13 | 42.01495 | 12.35028 | 13068 ft | 321 kts | 190° |
| 2026-05-01 09:13 | 41.99328 | 12.34549 | 12822 ft | 317 kts | 185° |
| 2026-05-01 09:13 | 41.97160 | 12.34837 | 12594 ft | 310 kts | 162° |
| 2026-05-01 09:14 | 41.95117 | 12.35681 | 12380 ft | 305 kts | 160° |
| 2026-05-01 09:14 | 41.93098 | 12.36559 | 12140 ft | 302 kts | 160° |
| 2026-05-01 09:14 | 41.91109 | 12.37418 | 11916 ft | 299 kts | 160° |
| 2026-05-01 09:14 | 41.89156 | 12.38245 | 11688 ft | 296 kts | 160° |
| 2026-05-01 09:15 | 41.87203 | 12.39063 | 11471 ft | 293 kts | 160° |
| 2026-05-01 09:15 | 41.85264 | 12.39870 | 11263 ft | 290 kts | 160° |
| 2026-05-01 09:15 | 41.83342 | 12.40672 | 11060 ft | 287 kts | 160° |
| 2026-05-01 09:15 | 41.81435 | 12.41466 | 10837 ft | 284 kts | 161° |
| 2026-05-01 09:16 | 41.79555 | 12.42249 | 10605 ft | 281 kts | 161° |
| 2026-05-01 09:16 | 41.77710 | 12.43018 | 10405 ft | 279 kts | 161° |
| 2026-05-01 09:16 | 41.75865 | 12.43788 | 10202 ft | 277 kts | 161° |
| 2026-05-01 09:17 | 41.72198 | 12.45312 | 9744 ft | 273 kts | 161° |
| 2026-05-01 09:17 | 41.70388 | 12.46065 | 9544 ft | 270 kts | 161° |
| 2026-05-01 09:17 | 41.66860 | 12.47531 | 9147 ft | 263 kts | 161° |
| 2026-05-01 09:18 | 41.65115 | 12.48253 | 8947 ft | 260 kts | 161° |
| 2026-05-01 09:18 | 41.61631 | 12.49689 | 8603 ft | 263 kts | 161° |
| 2026-05-01 09:19 | 41.58112 | 12.51137 | 8240 ft | 264 kts | 161° |
| 2026-05-01 09:19 | 41.56377 | 12.51848 | 8056 ft | 263 kts | 162° |
| 2026-05-01 09:19 | 41.54631 | 12.52561 | 7855 ft | 262 kts | 161° |
| 2026-05-01 09:20 | 41.51175 | 12.53975 | 7502 ft | 257 kts | 162° |
| 2026-05-01 09:20 | 41.47793 | 12.55374 | 7158 ft | 252 kts | 162° |
| 2026-05-01 09:21 | 41.44400 | 12.55870 | 6647 ft | 253 kts | 203° |
| 2026-05-01 09:21 | 41.43001 | 12.54523 | 6416 ft | 248 kts | 235° |
| 2026-05-01 09:21 | 41.41714 | 12.50458 | 6077 ft | 235 kts | 256° |
| 2026-05-01 09:22 | 41.41189 | 12.46266 | 5735 ft | 225 kts | 287° |
| 2026-05-01 09:22 | 41.43129 | 12.43379 | 5471 ft | 211 kts | 338° |
| 2026-05-01 09:23 | 41.44485 | 12.42764 | 5337 ft | 201 kts | 343° |
| 2026-05-01 09:23 | 41.47147 | 12.41815 | 5050 ft | 196 kts | 343° |
| 2026-05-01 09:24 | 41.49752 | 12.40778 | 4769 ft | 196 kts | 342° |
| 2026-05-01 09:24 | 41.51057 | 12.40239 | 4634 ft | 196 kts | 342° |
| 2026-05-01 09:24 | 41.53651 | 12.39153 | 4368 ft | 196 kts | 342° |
| 2026-05-01 09:25 | 41.56261 | 12.38055 | 4101 ft | 197 kts | 342° |
| 2026-05-01 09:25 | 41.58892 | 12.36949 | 3829 ft | 199 kts | 342° |
| 2026-05-01 09:26 | 41.60206 | 12.36396 | 3678 ft | 196 kts | 342° |
| 2026-05-01 09:26 | 41.62797 | 12.35307 | 3494 ft | 199 kts | 343° |
| 2026-05-01 09:26 | 41.64119 | 12.34751 | 3450 ft | 197 kts | 343° |
| 2026-05-01 09:27 | 41.66751 | 12.33645 | 2969 ft | 197 kts | 343° |
| 2026-05-01 09:27 | 41.68044 | 12.33100 | 2729 ft | 192 kts | 344° |
| 2026-05-01 09:27 | 41.69285 | 12.32577 | 2472 ft | 187 kts | 344° |
| 2026-05-01 09:28 | 41.70517 | 12.32060 | 2215 ft | 183 kts | 344° |
| 2026-05-01 09:28 | 41.71712 | 12.31550 | 2070 ft | 179 kts | 344° |
| 2026-05-01 09:28 | 41.72908 | 12.31046 | 1688 ft | 175 kts | 345° |
| 2026-05-01 09:28 | 41.74023 | 12.30563 | 1547 ft | 165 kts | 343° |
| 2026-05-01 09:29 | 41.76181 | 12.29681 | 1104 ft | 155 kts | 345° |
| 2026-05-01 09:29 | 41.77188 | 12.29255 | 882 ft | 152 kts | 345° |
| 2026-05-01 09:30 | 41.79208 | 12.28391 | 475 ft | 153 kts | 345° |
| 2026-05-01 09:30 | 41.80228 | 12.27968 | 294 ft | 152 kts | 345° |
| 2026-05-01 09:30 | 41.82132 | 12.27188 | 10 ft | 121 kts | 343° |
| 2026-05-01 09:31 | 41.82730 | 12.26933 | 13 ft | 59 kts | 342° |
| 2026-05-01 09:31 | 41.83006 | 12.26791 | 11 ft | 37 kts | 332° |
| 2026-05-01 09:31 | 41.83227 | 12.26428 | 13 ft | 16 kts | 213° |
| 2026-05-01 09:32 | 41.83119 | 12.26446 | 11 ft | 16 kts | 162° |
| 2026-05-01 09:32 | 41.82917 | 12.26530 | 10 ft | 15 kts | 162° |
| 2026-05-01 09:32 | 41.82823 | 12.26570 | 10 ft | 14 kts | 163° |
| 2026-05-01 09:33 | 41.82732 | 12.26608 | 10 ft | 13 kts | 162° |
| 2026-05-01 09:33 | 41.82645 | 12.26644 | 10 ft | 13 kts | 163° |
| 2026-05-01 09:33 | 41.82457 | 12.26723 | 10 ft | 16 kts | 162° |
| 2026-05-01 09:34 | 41.82349 | 12.26768 | 10 ft | 17 kts | 162° |
| 2026-05-01 09:34 | 41.82230 | 12.26818 | 10 ft | 19 kts | 163° |
| 2026-05-01 09:34 | 41.81977 | 12.26924 | 10 ft | 19 kts | 162° |
| 2026-05-01 09:35 | 41.81856 | 12.26974 | 10 ft | 18 kts | 162° |
| 2026-05-01 09:35 | 41.81624 | 12.27071 | 11 ft | 17 kts | 163° |
| 2026-05-01 09:35 | 41.81514 | 12.27117 | 12 ft | 16 kts | 162° |
| 2026-05-01 09:36 | 41.81410 | 12.27161 | 11 ft | 16 kts | 162° |
| 2026-05-01 09:36 | 41.81306 | 12.27205 | 13 ft | 15 kts | 162° |
| 2026-05-01 09:36 | 41.81206 | 12.27246 | 11 ft | 15 kts | 163° |
| 2026-05-01 09:36 | 41.81103 | 12.27289 | 13 ft | 16 kts | 162° |
| 2026-05-01 09:37 | 41.80996 | 12.27334 | 11 ft | 16 kts | 163° |
| 2026-05-01 09:37 | 41.80776 | 12.27320 | 12 ft | 16 kts | 189° |
| 2026-05-01 09:37 | 41.80679 | 12.27271 | 13 ft | 15 kts | 225° |
| 2026-05-01 09:38 | 41.80600 | 12.27023 | 14 ft | 14 kts | 250° |
| 2026-05-01 09:38 | 41.80568 | 12.26904 | 12 ft | 13 kts | 250° |
| 2026-05-01 09:38 | 41.80536 | 12.26790 | 14 ft | 13 kts | 250° |
| 2026-05-01 09:39 | 41.80476 | 12.26572 | 14 ft | 12 kts | 250° |
| 2026-05-01 09:39 | 41.80447 | 12.26467 | 15 ft | 12 kts | 250° |
| 2026-05-01 09:39 | 41.80405 | 12.26371 | 14 ft | 12 kts | 212° |
| 2026-05-01 09:40 | 41.80319 | 12.26385 | 13 ft | 14 kts | 160° |
| 2026-05-01 09:40 | 41.80127 | 12.26352 | 13 ft | 15 kts | 205° |
| 2026-05-01 09:40 | 41.80032 | 12.26293 | 13 ft | 15 kts | 204° |
| 2026-05-01 09:41 | 41.79938 | 12.26235 | 13 ft | 14 kts | 204° |
| 2026-05-01 09:41 | 41.79833 | 12.26082 | 14 ft | 11 kts | 295° |
| 2026-05-01 09:41 | 41.79864 | 12.25995 | 13 ft | 10 kts | 294° |
| 2026-05-01 09:42 | 41.79892 | 12.25916 | 14 ft | 9 kts | 295° |
| 2026-05-01 09:42 | 41.79892 | 12.25839 | 14 ft | 9 kts | 223° |
| 2026-05-01 09:42 | 41.79790 | 12.25815 | 13 ft | 7 kts | 205° |
| 2026-05-01 09:43 | 41.79753 | 12.25829 | 13 ft | 2 kts | 114° |
| 2026-05-01 09:43 | 41.79747 | 12.25847 | 13 ft | 1 kts | 115° |
| 2026-05-01 09:43 | 41.79744 | 12.25855 | 13 ft | 1 kts | 115° |
| 2026-05-01 09:44 | 41.79743 | 12.25858 | 13 ft | 0 kts | 115° |